Barclay, MD (21607)

3:12 PM EST on December 02, 2016 (GMT -0500)
Barclay, MD | | Change Station

Elev 62 ft 39.14 °N, 75.81 °W | Updated 5 minutes ago

Clear
Clear
48.2 °F
Feels Like 43 °F
N
11.9
Wind Variable Wind from WNW

Today
High -- | Low -- °F
--% Chance of Precip.
Yesterday
High -- | Low -- °F
Precip. -- in
Pressure 29.98 in
Visibility 10.0 miles
Clouds Clear
Windchill 43 °F
Dew Point 33 °F
Humidity 55%
Rainfall 0.00 in
Snow Depth Not available.
7:05 AM 4:40 PM
Waxing Crescent, 10% visible
METAR KDOV 021958Z AUTO 28015KT 10SM CLR 10/M01 A2997 RMK AO2 SLP152 T01021006 $
Pressure 29.98 in
Visibility 10.0 miles
Clouds Clear
Windchill 43 °F
Dew Point 33 °F
Humidity 55%
Rainfall 0.00 in
Snow Depth Not available.
7:05 AM 4:40 PM
Waxing Crescent, 10% visible
METAR KDOV 021958Z AUTO 28015KT 10SM CLR 10/M01 A2997 RMK AO2 SLP152 T01021006 $

10-Day Weather Forecast

Almanac

Astronomy

Dec. 02, 2016 Rise Set
Actual Time
Civil Twilight
Nautical Twilight
Astronomical Twilight
Moon
Length of Visible Light
Length of Day
Tomorrow will be .
, % of the Moon is Illuminated

Today's Extremes

State Highs State Lows

Community

WunderPhotos

Upload Photos

1,955,348 photos uploaded!

WunderBlog® & News

Nearby

Air Quality

  Air Quality AQ Index Pollutant
Not available.

Snow Depth

Station Depth Elevation

Earthquake Activity

City Distance Mag. Time & Date
Minimum magnitude displayed is 2.5.

Coastal Water Temperatures

Place Temperature

Stations

Nearby Weather Stations

Station Location Temp. Windchill Dew Point Humidity Wind Precip. Elev Updated Type
                   

Watches & Warnings

There are currently no watches in effect.